Time;durP1;ratioP1;P1;durP2;ratioP2;P2;SDS_P1;SDS_P2;PMS_P1;PMS_P2;Temp;Humidity;BMP_temperature;BMP_pressure;BME280_temperature;BME280_humidity;BME280_pressure;Samples;Min_cycle;Max_cycle;Signal;HPM_P1;HPM_P2
2022/09/28 00:01:07;;;;;;;3.88;0.80;;;9.30;85.00;;;;;;5022038;28;20025;-77
2022/09/28 00:03:34;;;;;;;8.02;0.73;;;9.30;84.30;;;;;;5016650;28;20029;-78
2022/09/28 00:06:01;;;;;;;3.80;1.20;;;9.20;85.20;;;;;;5033050;28;20052;-78
2022/09/28 00:08:27;;;;;;;4.35;1.20;;;9.30;84.40;;;;;;5031771;28;20084;-78
2022/09/28 00:10:57;;;;;;;4.82;0.85;;;9.30;83.20;;;;;;5031598;28;20025;-78
2022/09/28 00:13:23;;;;;;;3.90;0.95;;;9.30;83.00;;;;;;5031515;28;20095;-78
2022/09/28 00:16:11;;;;;;;1.88;0.73;;;9.30;83.40;;;;;;5031706;28;20072;-79
2022/09/28 00:18:36;;;;;;;4.90;0.70;;;9.30;83.30;;;;;;5031371;28;20075;-78
2022/09/28 00:21:11;;;;;;;4.30;0.63;;;9.30;83.40;;;;;;5031507;28;20021;-78
2022/09/28 00:24:11;;;;;;;2.70;0.60;;;9.30;84.20;;;;;;5031788;28;20208;-77
2022/09/28 00:26:23;;;;;;;;;;;9.30;83.80;;;;;;5031942;28;20036;-78
2022/09/28 00:28:53;;;;;;;;;;;9.30;83.60;;;;;;5015414;28;19913;-78
2022/09/28 00:31:20;;;;;;;2.53;0.73;;;9.30;84.00;;;;;;5015182;28;19911;-78
2022/09/28 00:33:51;;;;;;;3.05;0.70;;;9.30;83.30;;;;;;5031787;28;20017;-78
2022/09/28 00:36:17;;;;;;;2.42;0.60;;;9.30;83.30;;;;;;5031197;28;20555;-78
2022/09/28 00:38:43;;;;;;;4.43;0.75;;;9.40;82.80;;;;;;5031692;28;20367;-79
2022/09/28 00:41:10;;;;;;;2.38;0.40;;;9.40;84.20;;;;;;5031491;28;20036;-78
2022/09/28 00:43:36;;;;;;;4.65;1.13;;;9.40;83.90;;;;;;5017889;28;20025;-78
2022/09/28 00:46:10;;;;;;;3.10;0.85;;;9.40;83.80;;;;;;5035237;28;20030;-78
2022/09/28 00:48:38;;;;;;;5.65;0.85;;;9.40;83.70;;;;;;5018485;28;20486;-79
2022/09/28 00:51:08;;;;;;;2.15;0.55;;;9.40;83.40;;;;;;5034913;28;20025;-78
2022/09/28 00:53:38;;;;;;;4.10;0.80;;;9.40;82.90;;;;;;5035210;28;20540;-78
2022/09/28 00:56:07;;;;;;;4.43;1.15;;;9.50;82.40;;;;;;5035237;28;20051;-78
2022/09/28 00:58:38;;;;;;;6.43;1.08;;;9.50;83.10;;;;;;5035219;28;20021;-78
2022/09/28 01:01:04;;;;;;;3.55;1.05;;;9.60;82.80;;;;;;5034510;28;20076;-78
2022/09/28 01:03:32;;;;;;;2.95;0.80;;;9.60;82.70;;;;;;5035128;28;20033;-78
2022/09/28 01:06:01;;;;;;;6.55;0.82;;;9.60;81.70;;;;;;5035084;28;20053;-78
2022/09/28 01:08:29;;;;;;;5.57;1.05;;;9.60;82.70;;;;;;5034643;28;20086;-78
2022/09/28 01:10:56;;;;;;;5.63;0.93;;;9.60;82.40;;;;;;5034657;28;20538;-78
2022/09/28 01:13:23;;;;;;;5.22;1.05;;;9.60;82.60;;;;;;5034653;28;20184;-78
2022/09/28 01:15:58;;;;;;;6.53;1.33;;;9.60;82.90;;;;;;5034836;28;20028;-78
2022/09/28 01:18:44;;;;;;;4.90;1.38;;;9.60;83.30;;;;;;5018203;28;20029;-78
2022/09/28 01:21:23;;;;;;;5.72;1.13;;;9.60;83.10;;;;;;5018057;28;20021;-78
2022/09/28 01:23:55;;;;;;;7.13;1.30;;;9.50;83.40;;;;;;5034410;28;20034;-78
2022/09/28 01:26:44;;;;;;;4.75;0.75;;;9.60;83.30;;;;;;5018214;28;20045;-78
2022/09/28 01:29:38;;;;;;;6.03;0.90;;;9.60;83.30;;;;;;5017604;28;20041;-79
2022/09/28 01:32:32;;;;;;;4.25;0.95;;;9.50;84.50;;;;;;5035665;28;20108;-77
2022/09/28 01:35:04;;;;;;;8.10;1.55;;;9.50;84.60;;;;;;5034086;28;20076;-78
2022/09/28 01:37:51;;;;;;;6.68;1.17;;;9.50;85.80;;;;;;5034134;28;20112;-78
2022/09/28 01:40:20;;;;;;;6.90;1.10;;;9.40;85.00;;;;;;5033799;28;20041;-78
2022/09/28 01:42:49;;;;;;;5.05;1.20;;;9.40;85.20;;;;;;5033797;28;20037;-78
2022/09/28 01:45:31;;;;;;;3.70;0.80;;;9.40;86.40;;;;;;5034265;28;20466;-78
2022/09/28 01:48:01;;;;;;;8.82;1.23;;;9.40;85.00;;;;;;5033814;28;20498;-78
2022/09/28 01:50:30;;;;;;;3.20;0.85;;;9.40;85.40;;;;;;5035472;28;20030;-78
2022/09/28 01:53:20;;;;;;;7.65;1.35;;;9.40;85.60;;;;;;5033958;28;20539;-78
2022/09/28 01:55:54;;;;;;;9.57;1.50;;;9.40;84.60;;;;;;5016627;28;20032;-78
2022/09/28 01:58:28;;;;;;;6.35;0.95;;;9.40;85.50;;;;;;5034002;28;20113;-78
2022/09/28 02:01:02;;;;;;;2.55;0.82;;;9.40;84.90;;;;;;5033717;28;20037;-78
2022/09/28 02:03:35;;;;;;;3.25;1.15;;;9.40;84.70;;;;;;5033857;28;20060;-78
2022/09/28 02:06:07;;;;;;;6.95;0.90;;;9.40;84.70;;;;;;5033801;28;20033;-78
2022/09/28 02:08:49;;;;;;;5.13;1.02;;;9.30;85.80;;;;;;5033672;28;20501;-78
2022/09/28 02:11:20;;;;;;;2.30;0.80;;;9.30;86.50;;;;;;5017336;28;20033;-78
2022/09/28 02:13:59;;;;;;;3.30;0.85;;;9.30;84.80;;;;;;5017192;28;20127;-77
2022/09/28 02:16:42;;;;;;;4.03;0.68;;;9.30;86.00;;;;;;5033738;28;20049;-77
2022/09/28 02:19:14;;;;;;;7.53;0.90;;;9.30;84.80;;;;;;5033616;28;20072;-77
2022/09/28 02:21:45;;;;;;;5.43;0.88;;;9.30;85.40;;;;;;5034704;28;20047;-77
2022/09/28 02:24:21;;;;;;;2.80;0.47;;;9.40;83.20;;;;;;5016787;28;20029;-77
2022/09/28 02:26:49;;;;;;;2.67;0.60;;;9.40;83.70;;;;;;5033547;28;20021;-77
2022/09/28 02:29:15;;;;;;;1.80;0.47;;;9.40;84.30;;;;;;5033246;28;20393;-77
2022/09/28 02:31:41;;;;;;;1.00;0.40;;;9.40;83.70;;;;;;5034688;28;20100;-78
2022/09/28 02:34:07;;;;;;;0.60;0.40;;;9.40;83.90;;;;;;5033468;28;20079;-77
2022/09/28 02:36:33;;;;;;;2.42;0.20;;;9.40;83.20;;;;;;5033108;28;20026;-77
2022/09/28 02:39:02;;;;;;;1.23;0.40;;;9.50;82.10;;;;;;5033062;28;20095;-77
2022/09/28 02:41:57;;;;;;;2.72;0.40;;;9.50;81.50;;;;;;5032926;28;20029;-77
2022/09/28 02:44:38;;;;;;;0.93;0.28;;;9.50;82.30;;;;;;5033107;28;20060;-78
2022/09/28 02:47:34;;;;;;;1.10;0.40;;;9.50;82.30;;;;;;5016528;28;20457;-79
2022/09/28 02:50:35;;;;;;;3.05;0.40;;;9.40;82.20;;;;;;5032535;28;20029;-79
2022/09/28 02:53:00;;;;;;;1.75;0.30;;;9.50;82.10;;;;;;5005759;28;20044;-78
2022/09/28 02:55:44;;;;;;;2.00;0.30;;;9.50;82.50;;;;;;5016246;28;20029;-78
2022/09/28 02:58:46;;;;;;;0.95;0.52;;;9.50;82.40;;;;;;5016497;28;20053;-79
2022/09/28 03:01:33;;;;;;;0.95;0.20;;;9.50;82.50;;;;;;5016092;28;20029;-79
2022/09/28 03:04:25;;;;;;;0.70;0.22;;;9.40;82.40;;;;;;5016197;28;20043;-78
2022/09/28 03:07:06;;;;;;;0.85;0.25;;;9.50;82.30;;;;;;5032294;28;20064;-78
2022/09/28 03:09:59;;;;;;;1.27;0.40;;;9.50;82.70;;;;;;5032893;28;20033;-78
2022/09/28 03:12:28;;;;;;;0.52;0.10;;;9.50;82.00;;;;;;5015719;28;20025;-78
2022/09/28 03:15:11;;;;;;;5.72;0.52;;;9.60;82.20;;;;;;5032320;28;20089;-78
2022/09/28 03:17:37;;;;;;;0.55;0.17;;;9.50;82.50;;;;;;5032490;28;20466;-79
2022/09/28 03:20:04;;;;;;;1.33;0.47;;;9.50;82.90;;;;;;5032384;28;20045;-79
2022/09/28 03:22:30;;;;;;;3.10;0.52;;;9.50;83.10;;;;;;5032341;28;20022;-78
2022/09/28 03:24:57;;;;;;;0.75;0.20;;;9.50;82.40;;;;;;5032127;28;20167;-78
2022/09/28 03:27:23;;;;;;;0.88;0.30;;;9.50;82.60;;;;;;5032023;28;20116;-77
2022/09/28 03:29:48;;;;;;;0.40;0.40;;;9.50;82.00;;;;;;5032415;28;20493;-78
2022/09/28 03:32:14;;;;;;;1.50;0.40;;;9.60;82.20;;;;;;5032246;28;20018;-78
2022/09/28 03:34:40;;;;;;;1.10;0.20;;;9.50;82.90;;;;;;5032139;28;20080;-78
2022/09/28 03:37:05;;;;;;;1.75;0.38;;;9.50;82.80;;;;;;5031993;28;20030;-78
2022/09/28 03:39:31;;;;;;;0.35;0.28;;;9.60;82.80;;;;;;5031774;28;20030;-77
2022/09/28 03:41:59;;;;;;;0.70;0.32;;;9.60;83.00;;;;;;5031813;28;20031;-78
2022/09/28 03:44:26;;;;;;;2.67;0.50;;;9.60;82.50;;;;;;5031625;28;20084;-78
2022/09/28 03:46:51;;;;;;;0.63;0.32;;;9.60;82.90;;;;;;5031596;28;20087;-78
2022/09/28 03:49:17;;;;;;;0.70;0.30;;;9.60;83.70;;;;;;5031718;28;20033;-78
2022/09/28 03:51:42;;;;;;;0.63;0.20;;;9.60;83.10;;;;;;5031757;28;20075;-77
2022/09/28 03:54:08;;;;;;;0.30;0.30;;;9.60;83.90;;;;;;5031619;28;20017;-78
2022/09/28 03:56:34;;;;;;;0.35;0.30;;;9.60;84.10;;;;;;5031905;28;20056;-77
2022/09/28 03:59:02;;;;;;;0.38;0.30;;;9.60;84.50;;;;;;5031548;28;20112;-77
2022/09/28 04:01:27;;;;;;;0.47;0.30;;;9.50;84.70;;;;;;5031451;28;20026;-77
2022/09/28 04:03:54;;;;;;;0.57;0.40;;;9.50;84.40;;;;;;5031789;28;20105;-77
2022/09/28 04:06:20;;;;;;;0.75;0.20;;;9.50;84.10;;;;;;5031699;28;20131;-77
2022/09/28 04:08:46;;;;;;;0.43;0.22;;;9.60;85.00;;;;;;5031142;28;20553;-77
2022/09/28 04:11:12;;;;;;;1.13;0.30;;;9.60;84.20;;;;;;5031604;28;20025;-76
2022/09/28 04:13:37;;;;;;;1.60;0.35;;;9.60;84.40;;;;;;5031484;28;20049;-76
2022/09/28 04:16:04;;;;;;;0.10;0.10;;;9.60;84.70;;;;;;5031545;28;20386;-78
2022/09/28 04:18:31;;;;;;;0.90;0.20;;;9.60;84.60;;;;;;5034394;28;20024;-77
2022/09/28 04:21:08;;;;;;;1.02;0.30;;;9.50;85.00;;;;;;5035667;28;20112;-77
2022/09/28 04:23:35;;;;;;;0.30;0.10;;;9.60;84.50;;;;;;5035503;28;20022;-77
2022/09/28 04:26:03;;;;;;;0.45;0.10;;;9.60;84.50;;;;;;5035814;28;20021;-79
2022/09/28 04:31:19;;;;;;;0.20;0.20;;;9.60;84.60;;;;;;5036983;28;20095;-79
2022/09/28 04:33:46;;;;;;;0.10;0.10;;;9.70;84.00;;;;;;5035330;28;20032;-77
2022/09/28 04:36:12;;;;;;;0.90;0.10;;;9.70;85.00;;;;;;5035384;28;20053;-76
2022/09/28 04:38:39;;;;;;;0.63;0.20;;;9.80;84.00;;;;;;5035233;28;20056;-77
2022/09/28 04:41:05;;;;;;;0.20;0.20;;;9.70;84.30;;;;;;5035021;28;20022;-77
2022/09/28 04:43:32;;;;;;;0.65;0.25;;;9.80;84.30;;;;;;5036257;28;20049;-77
2022/09/28 04:45:59;;;;;;;0.30;0.20;;;9.80;84.30;;;;;;5018704;28;20048;-77
2022/09/28 04:48:25;;;;;;;0.70;0.13;;;9.90;84.40;;;;;;5035083;28;20033;-77
2022/09/28 04:50:55;;;;;;;0.60;0.30;;;9.90;84.40;;;;;;5035113;28;20021;-77
2022/09/28 04:53:22;;;;;;;0.13;0.13;;;9.90;84.80;;;;;;5035036;28;20057;-77
2022/09/28 04:56:14;;;;;;;0.28;0.20;;;9.90;84.80;;;;;;5035179;28;20532;-77
2022/09/28 04:58:40;;;;;;;0.03;0.03;;;10.00;85.60;;;;;;4999473;28;20140;-77
2022/09/28 05:01:09;;;;;;;0.45;0.13;;;9.90;84.80;;;;;;5034800;28;20068;-77
2022/09/28 05:03:35;;;;;;;0.45;0.20;;;10.00;84.80;;;;;;5034477;28;20026;-77
2022/09/28 05:06:01;;;;;;;0.40;0.20;;;10.00;84.60;;;;;;5034808;28;20351;-77
2022/09/28 05:08:27;;;;;;;0.65;0.30;;;10.00;84.80;;;;;;5034913;28;20389;-77
2022/09/28 05:11:09;;;;;;;0.52;0.30;;;10.00;84.70;;;;;;5034616;28;20520;-77
2022/09/28 05:13:40;;;;;;;0.30;0.20;;;10.10;84.00;;;;;;5017727;28;20057;-77
2022/09/28 05:16:08;;;;;;;0.57;0.13;;;10.10;83.80;;;;;;5034494;28;20506;-77
2022/09/28 05:18:33;;;;;;;0.95;0.40;;;10.10;83.50;;;;;;5034394;28;20037;-77
2022/09/28 05:21:00;;;;;;;0.30;0.30;;;10.20;83.60;;;;;;5034385;28;20022;-77
2022/09/28 05:23:25;;;;;;;2.05;0.20;;;10.20;83.20;;;;;;5033917;28;20022;-77
2022/09/28 05:25:51;;;;;;;0.43;0.20;;;10.20;83.40;;;;;;5033596;28;20370;-78
2022/09/28 05:28:24;;;;;;;2.55;0.43;;;10.20;83.30;;;;;;5033021;28;20124;-78
2022/09/28 05:30:49;;;;;;;1.52;0.40;;;10.30;83.50;;;;;;5032966;28;20112;-77
2022/09/28 05:33:15;;;;;;;0.80;0.20;;;10.30;83.50;;;;;;5034082;28;20116;-78
2022/09/28 05:35:40;;;;;;;0.47;0.30;;;10.30;83.50;;;;;;5033694;28;20386;-77
2022/09/28 05:38:06;;;;;;;0.35;0.20;;;10.30;83.80;;;;;;5033450;28;20060;-77
2022/09/28 05:40:31;;;;;;;0.10;0.10;;;10.30;82.70;;;;;;5033713;28;20470;-77
2022/09/28 05:42:59;;;;;;;0.20;0.20;;;10.40;82.80;;;;;;5033920;28;20029;-77
2022/09/28 05:45:24;;;;;;;0.55;0.10;;;10.40;82.80;;;;;;5033614;28;20488;-76
2022/09/28 05:47:50;;;;;;;0.40;0.20;;;10.40;82.90;;;;;;5017038;28;20033;-75
2022/09/28 05:50:15;;;;;;;0.40;0.17;;;10.40;83.20;;;;;;5014935;28;20030;-76
2022/09/28 05:52:43;;;;;;;2.30;0.60;;;10.30;84.10;;;;;;5013825;28;20038;-77
2022/09/28 05:55:09;;;;;;;0.50;0.30;;;10.30;84.70;;;;;;5013470;28;20163;-77
2022/09/28 05:57:34;;;;;;;0.45;0.20;;;10.30;85.30;;;;;;5013867;28;20033;-77
2022/09/28 06:00:01;;;;;;;1.35;0.20;;;10.30;85.90;;;;;;5013609;28;20072;-77
2022/09/28 06:02:26;;;;;;;0.55;0.20;;;10.10;87.00;;;;;;4997183;28;20435;-76
2022/09/28 06:04:52;;;;;;;0.80;0.40;;;10.10;87.60;;;;;;5013806;28;20053;-76
2022/09/28 06:07:19;;;;;;;0.10;0.10;;;10.00;88.10;;;;;;5013920;28;20041;-76
2022/09/28 06:09:45;;;;;;;4.70;0.60;;;10.00;89.40;;;;;;4997169;28;20026;-75
2022/09/28 06:12:10;;;;;;;8.77;0.88;;;10.00;89.40;;;;;;5014839;28;20036;-74
2022/09/28 06:14:37;;;;;;;7.70;0.90;;;10.30;90.80;;;;;;5032815;28;20045;-79
2022/09/28 06:17:04;;;;;;;1.30;0.50;;;10.40;90.90;;;;;;5034622;28;20028;-78
2022/09/28 06:19:33;;;;;;;1.85;0.50;;;10.60;90.00;;;;;;5000585;28;20030;-78
2022/09/28 06:21:59;;;;;;;4.55;2.83;;;10.60;88.40;;;;;;5033947;28;20045;-79
2022/09/28 06:24:26;;;;;;;3.33;0.95;;;10.60;86.10;;;;;;5016600;28;20109;-78
2022/09/28 06:26:51;;;;;;;2.25;0.70;;;10.50;85.20;;;;;;5016249;28;20048;-74
2022/09/28 06:29:18;;;;;;;0.63;0.50;;;10.50;86.00;;;;;;5016672;28;20033;-75
2022/09/28 06:31:46;;;;;;;1.40;0.60;;;10.30;85.60;;;;;;5016370;28;20055;-76
2022/09/28 06:34:12;;;;;;;2.55;0.75;;;10.10;86.30;;;;;;5034049;28;20108;-76
2022/09/28 06:36:38;;;;;;;1.67;0.55;;;10.00;86.90;;;;;;5016149;28;20057;-76
2022/09/28 06:39:05;;;;;;;1.85;0.60;;;9.80;87.40;;;;;;5016129;28;20463;-74
2022/09/28 06:41:30;;;;;;;2.15;0.60;;;9.70;87.80;;;;;;5016029;28;20040;-75
2022/09/28 06:43:56;;;;;;;0.75;0.50;;;9.70;87.90;;;;;;5016024;28;20108;-74
2022/09/28 06:46:22;;;;;;;2.38;1.73;;;9.60;88.50;;;;;;5016260;28;20033;-75
2022/09/28 06:48:48;;;;;;;3.00;0.80;;;9.70;88.10;;;;;;5016392;28;20041;-75
2022/09/28 06:51:14;;;;;;;4.20;1.30;;;9.60;88.00;;;;;;5034109;28;20017;-77
2022/09/28 06:53:40;;;;;;;2.95;0.90;;;9.60;88.50;;;;;;5016109;28;20029;-75
2022/09/28 06:56:10;;;;;;;2.65;0.88;;;9.60;88.40;;;;;;5015519;28;20481;-75
2022/09/28 06:58:35;;;;;;;4.15;1.10;;;9.60;88.50;;;;;;5016293;28;20029;-74
2022/09/28 07:01:02;;;;;;;2.20;1.10;;;9.70;88.30;;;;;;5015822;28;20076;-74
2022/09/28 07:03:28;;;;;;;2.80;0.82;;;9.80;88.10;;;;;;5015429;28;20074;-75
2022/09/28 07:05:55;;;;;;;3.58;1.02;;;9.70;87.60;;;;;;5015550;28;20428;-74
2022/09/28 07:08:23;;;;;;;2.45;0.70;;;9.70;87.70;;;;;;5015929;28;20512;-75
2022/09/28 07:10:55;;;;;;;2.33;1.02;;;9.80;88.40;;;;;;5015745;28;20022;-74
2022/09/28 07:13:22;;;;;;;3.05;0.70;;;9.70;88.60;;;;;;5016894;28;20465;-74
2022/09/28 07:15:47;;;;;;;1.63;1.00;;;9.80;88.70;;;;;;5022712;28;20024;-74
2022/09/28 07:18:13;;;;;;;2.20;0.95;;;9.80;88.90;;;;;;5015616;28;20021;-75
2022/09/28 07:20:38;;;;;;;1.80;0.80;;;9.80;88.90;;;;;;5015462;28;20426;-74
2022/09/28 07:23:09;;;;;;;2.80;1.48;;;9.80;89.00;;;;;;5015445;28;20029;-74
2022/09/28 07:25:36;;;;;;;1.95;1.30;;;9.90;89.00;;;;;;5015293;28;20028;-74
2022/09/28 07:28:03;;;;;;;1.98;1.50;;;9.90;89.20;;;;;;5015325;28;20037;-74
2022/09/28 07:30:32;;;;;;;6.32;1.80;;;9.90;89.20;;;;;;5015426;28;20022;-74
2022/09/28 07:32:58;;;;;;;3.65;1.40;;;9.90;89.70;;;;;;5015421;28;20026;-74
2022/09/28 07:35:24;;;;;;;5.97;1.40;;;9.80;89.60;;;;;;5015173;28;20108;-74
2022/09/28 07:38:01;;;;;;;1.58;1.00;;;9.90;90.00;;;;;;5015405;28;20128;-74
2022/09/28 07:43:15;;;;;;;2.65;0.90;;;9.80;89.80;;;;;;5033089;28;20100;-74
2022/09/28 07:45:42;;;;;;;2.33;0.82;;;9.80;89.80;;;;;;5014881;28;20029;-75
2022/09/28 07:48:08;;;;;;;3.95;1.38;;;9.80;89.20;;;;;;5015014;28;20048;-75
2022/09/28 07:50:33;;;;;;;2.25;1.17;;;9.70;89.50;;;;;;5015227;28;20100;-75
2022/09/28 07:52:59;;;;;;;4.57;1.58;;;9.70;89.40;;;;;;5014265;28;20056;-75
2022/09/28 07:55:25;;;;;;;2.28;1.02;;;9.80;89.70;;;;;;5015356;28;20385;-74
2022/09/28 07:57:55;;;;;;;3.17;1.10;;;9.80;89.60;;;;;;5014943;28;20456;-75
2022/09/28 08:00:21;;;;;;;4.70;1.17;;;9.70;89.70;;;;;;5015170;28;20113;-75
2022/09/28 08:02:47;;;;;;;3.35;1.00;;;9.80;89.10;;;;;;5014834;28;20450;-75
2022/09/28 08:05:13;;;;;;;5.82;0.88;;;9.80;89.60;;;;;;5015284;28;20029;-74
2022/09/28 08:07:38;;;;;;;4.20;1.02;;;9.80;89.80;;;;;;5014767;28;20493;-74
2022/09/28 08:10:05;;;;;;;4.35;1.00;;;9.90;89.70;;;;;;5014839;28;20074;-75
2022/09/28 08:12:30;;;;;;;1.75;1.08;;;9.90;89.70;;;;;;5014710;28;20029;-74
2022/09/28 08:14:57;;;;;;;2.88;0.98;;;10.00;89.40;;;;;;5014682;28;20066;-74
2022/09/28 08:17:23;;;;;;;3.63;1.35;;;10.00;88.80;;;;;;5014699;28;20386;-74
2022/09/28 08:22:32;;;;;;;5.45;0.85;;;10.20;89.10;;;;;;5032520;28;20040;-75
2022/09/28 08:24:58;;;;;;;2.85;1.05;;;10.20;88.40;;;;;;5014588;28;20021;-74
2022/09/28 08:27:24;;;;;;;4.00;1.15;;;10.20;88.40;;;;;;5014881;28;20363;-74
2022/09/28 08:29:49;;;;;;;3.92;1.20;;;10.10;87.70;;;;;;5014888;28;20156;-74
2022/09/28 08:32:16;;;;;;;4.03;1.50;;;10.00;87.60;;;;;;5014419;28;20108;-75
2022/09/28 08:34:42;;;;;;;3.35;1.27;;;10.00;87.00;;;;;;5014270;28;20040;-75
2022/09/28 08:37:08;;;;;;;4.97;1.45;;;10.00;87.80;;;;;;5014729;28;20429;-74
2022/09/28 08:39:34;;;;;;;3.65;1.27;;;10.00;87.40;;;;;;5014702;28;20084;-74
2022/09/28 08:42:19;;;;;;;3.17;1.13;;;10.00;88.70;;;;;;5014580;28;20025;-74
2022/09/28 08:44:50;;;;;;;4.07;1.45;;;10.00;88.20;;;;;;5014613;28;20103;-74
2022/09/28 08:50:10;;;;;;;3.95;1.73;;;10.20;88.50;;;;;;5032409;28;20393;-73
2022/09/28 08:52:39;;;;;;;5.95;1.40;;;10.30;86.80;;;;;;5014862;28;20025;-73
2022/09/28 08:55:12;;;;;;;5.03;1.23;;;10.20;87.00;;;;;;5014580;28;20025;-73
2022/09/28 08:58:11;;;;;;;7.70;1.80;;;10.30;87.40;;;;;;5014862;28;20124;-74
2022/09/28 09:00:47;;;;;;;5.32;1.55;;;10.30;85.70;;;;;;5014269;28;20030;-75
2022/09/28 09:03:17;;;;;;;3.75;1.42;;;10.30;86.20;;;;;;5015408;28;20195;-74
2022/09/28 09:06:19;;;;;;;3.40;1.35;;;10.30;85.80;;;;;;5018136;28;20071;-74
2022/09/28 09:09:03;;;;;;;5.55;1.80;;;10.20;86.50;;;;;;5017898;28;20053;-73
2022/09/28 09:11:37;;;;;;;7.72;1.60;;;10.20;85.30;;;;;;5017948;28;20069;-74
2022/09/28 09:14:10;;;;;;;4.60;1.15;;;10.10;85.30;;;;;;5017971;28;20045;-74
2022/09/28 09:17:02;;;;;;;6.18;2.00;;;10.10;85.60;;;;;;5017991;28;20025;-76
2022/09/28 09:19:39;;;;;;;5.72;1.35;;;10.10;85.90;;;;;;5014282;28;20040;-74
2022/09/28 09:22:14;;;;;;;7.65;1.58;;;10.00;84.60;;;;;;5017919;28;20033;-74
2022/09/28 09:24:50;;;;;;;3.05;1.40;;;10.00;84.90;;;;;;5018087;28;20028;-73
2022/09/28 09:27:41;;;;;;;2.97;1.05;;;10.00;86.40;;;;;;5017865;28;20029;-73
2022/09/28 09:30:21;;;;;;;8.90;1.38;;;9.80;86.30;;;;;;5017692;28;20072;-77
2022/09/28 09:33:14;;;;;;;3.70;1.65;;;9.80;87.30;;;;;;5015910;28;20027;-74
2022/09/28 09:35:49;;;;;;;6.03;2.05;;;9.80;87.20;;;;;;4996237;28;20029;-75
2022/09/28 09:38:35;;;;;;;5.97;1.02;;;9.60;87.60;;;;;;4997769;28;20057;-75
2022/09/28 09:41:14;;;;;;;4.15;1.05;;;9.60;88.40;;;;;;4997847;28;20509;-76
2022/09/28 09:44:11;;;;;;;6.18;1.17;;;9.60;88.60;;;;;;5013943;28;20112;-77
2022/09/28 09:46:43;;;;;;;3.47;1.45;;;9.60;88.60;;;;;;5023683;28;20037;-75
2022/09/28 09:49:23;;;;;;;3.60;1.30;;;9.60;88.90;;;;;;5010266;28;20080;-75
2022/09/28 09:52:19;;;;;;;5.43;1.83;;;9.70;88.90;;;;;;5014898;28;20053;-76
2022/09/28 09:55:03;;;;;;;6.13;1.75;;;9.90;88.80;;;;;;5013649;28;20022;-80
2022/09/28 09:57:33;;;;;;;5.03;2.05;;;9.90;88.70;;;;;;4997266;28;20052;-76
2022/09/28 10:00:02;;;;;;;6.80;1.63;;;10.00;88.70;;;;;;5014043;28;20109;-76
2022/09/28 10:02:32;;;;;;;4.45;1.30;;;10.00;88.20;;;;;;5013631;28;20018;-76
2022/09/28 10:05:18;;;;;;;5.60;1.67;;;10.00;88.30;;;;;;5013928;28;20029;-78
2022/09/28 10:07:46;;;;;;;;;;;10.10;87.80;;;;;;5013628;28;20445;-77
2022/09/28 10:10:34;;;;;;;3.78;0.90;;;10.20;86.70;;;;;;4997503;28;20329;-77
2022/09/28 10:13:00;;;;;;;4.03;1.35;;;10.20;83.60;;;;;;5019822;28;20057;-76
2022/09/28 10:15:29;;;;;;;4.85;1.35;;;10.30;82.20;;;;;;5015383;28;20446;-76
2022/09/28 10:17:57;;;;;;;2.78;1.40;;;10.30;82.30;;;;;;5016549;28;20022;-76
2022/09/28 10:20:24;;;;;;;4.65;1.55;;;10.50;82.40;;;;;;5016435;28;20026;-76
2022/09/28 10:23:00;;;;;;;4.22;2.00;;;10.60;81.40;;;;;;5016540;28;20049;-77
2022/09/28 10:25:27;;;;;;;10.05;2.28;;;10.70;81.20;;;;;;5016520;28;20029;-78
2022/09/28 10:27:54;;;;;;;6.00;1.90;;;10.70;82.10;;;;;;5016145;28;20090;-76
2022/09/28 10:30:22;;;;;;;5.70;1.80;;;10.70;81.70;;;;;;5016772;28;20025;-76
2022/09/28 10:32:51;;;;;;;4.25;1.15;;;10.70;81.50;;;;;;5016633;28;20116;-78
2022/09/28 10:35:40;;;;;;;5.25;2.10;;;10.90;81.40;;;;;;5016064;28;20060;-77
2022/09/28 10:38:17;;;;;;;4.13;1.30;;;11.00;80.20;;;;;;5016549;28;20075;-77
2022/09/28 10:40:47;;;;;;;3.72;1.30;;;10.90;78.80;;;;;;5033786;28;20427;-77
2022/09/28 10:43:23;;;;;;;5.63;1.70;;;11.00;78.70;;;;;;5015782;28;20036;-77
2022/09/28 10:46:02;;;;;;;7.32;1.88;;;11.00;79.40;;;;;;5013926;28;20028;-75
2022/09/28 10:48:35;;;;;;;5.80;1.65;;;11.00;79.40;;;;;;5008011;28;20030;-76
2022/09/28 10:51:06;;;;;;;3.88;1.70;;;11.00;79.60;;;;;;5013296;28;20028;-77
2022/09/28 10:53:37;;;;;;;5.25;1.40;;;10.90;78.10;;;;;;5013475;28;20041;-78
2022/09/28 10:56:06;;;;;;;3.50;1.35;;;10.90;77.70;;;;;;5013536;28;20393;-78
2022/09/28 10:58:40;;;;;;;3.92;1.48;;;10.90;76.90;;;;;;5014806;28;20040;-80
2022/09/28 11:01:10;;;;;;;7.90;1.55;;;10.80;77.10;;;;;;5014535;28;20033;-77
2022/09/28 11:03:58;;;;;;;6.38;1.42;;;10.70;78.50;;;;;;5015486;28;20033;-82
2022/09/28 11:06:28;;;;;;;4.53;1.40;;;10.80;78.70;;;;;;5033502;28;20075;-80
2022/09/28 11:09:02;;;;;;;6.07;1.13;;;10.80;78.70;;;;;;5015688;28;20041;-80
2022/09/28 11:11:31;;;;;;;5.32;1.30;;;10.90;77.10;;;;;;5015670;28;20021;-80
2022/09/28 11:14:00;;;;;;;5.05;1.45;;;10.90;78.30;;;;;;5032067;28;20057;-78
2022/09/28 11:16:34;;;;;;;4.15;1.48;;;11.00;77.30;;;;;;5031973;28;20056;-80
2022/09/28 11:19:24;;;;;;;12.18;3.58;;;11.00;76.90;;;;;;5032247;28;20034;-78
2022/09/28 11:21:49;;;;;;;5.10;1.75;;;11.00;76.20;;;;;;5015247;28;20470;-79
2022/09/28 11:24:21;;;;;;;8.07;2.65;;;10.90;77.30;;;;;;5031862;28;20116;-78
2022/09/28 11:26:55;;;;;;;4.72;1.88;;;10.90;76.80;;;;;;5032107;28;20051;-79
2022/09/28 11:29:35;;;;;;;6.88;1.63;;;10.90;77.60;;;;;;5014585;28;20103;-79
2022/09/28 11:32:03;;;;;;;5.70;1.50;;;10.80;78.60;;;;;;5031740;28;20490;-81
2022/09/28 11:34:44;;;;;;;5.95;1.60;;;10.80;77.30;;;;;;5031922;28;20052;-80
2022/09/28 11:37:35;;;;;;;6.50;1.67;;;10.80;76.30;;;;;;5031792;28;20028;-78
2022/09/28 11:40:10;;;;;;;7.20;1.67;;;10.80;76.20;;;;;;5031359;28;20488;-78
2022/09/28 11:43:12;;;;;;;5.47;1.42;;;10.70;76.70;;;;;;5015317;28;20029;-77
2022/09/28 11:45:50;;;;;;;6.07;1.80;;;10.70;76.70;;;;;;5015199;28;20029;-78
2022/09/28 11:48:24;;;;;;;7.90;1.92;;;10.70;78.50;;;;;;5031711;28;20040;-79
2022/09/28 11:51:07;;;;;;;8.40;1.95;;;10.70;78.70;;;;;;5009524;28;20116;-80
2022/09/28 11:53:48;;;;;;;7.68;1.92;;;10.60;75.50;;;;;;5032509;28;20064;-78
2022/09/28 11:56:44;;;;;;;4.63;1.73;;;10.60;77.90;;;;;;5031517;28;20438;-78
2022/09/28 11:59:16;;;;;;;6.47;1.95;;;10.60;77.30;;;;;;5031446;28;20049;-78
2022/09/28 12:01:48;;;;;;;5.55;1.77;;;10.60;77.60;;;;;;5032813;28;20033;-78
2022/09/28 12:04:22;;;;;;;8.80;2.47;;;10.60;77.90;;;;;;5031469;28;20080;-77
2022/09/28 12:07:11;;;;;;;7.80;2.05;;;10.50;77.90;;;;;;5031394;28;20037;-77
2022/09/28 12:09:49;;;;;;;3.58;1.33;;;10.40;78.60;;;;;;5005589;28;20103;-77
2022/09/28 12:12:29;;;;;;;3.92;1.02;;;10.30;78.50;;;;;;5031036;28;20029;-78
2022/09/28 12:14:59;;;;;;;2.63;1.00;;;10.30;78.90;;;;;;5031338;28;20040;-78
2022/09/28 12:17:39;;;;;;;6.60;1.20;;;10.40;79.60;;;;;;5031183;28;20428;-79
2022/09/28 12:20:26;;;;;;;2.70;0.88;;;10.40;79.40;;;;;;5031182;28;20034;-78
2022/09/28 12:23:17;;;;;;;3.92;1.20;;;10.50;79.20;;;;;;5030768;28;20084;-77
2022/09/28 12:25:48;;;;;;;4.03;1.23;;;10.60;78.80;;;;;;5032115;28;20121;-78
2022/09/28 12:28:42;;;;;;;5.00;1.65;;;10.50;79.60;;;;;;5030983;28;20121;-79
2022/09/28 12:31:33;;;;;;;3.08;1.40;;;10.50;79.90;;;;;;5030860;28;20418;-79
2022/09/28 12:34:00;;;;;;;6.10;1.27;;;10.50;80.00;;;;;;5031243;28;20032;-80
2022/09/28 12:36:39;;;;;;;5.70;1.40;;;10.50;79.00;;;;;;5031263;28;20029;-78
2022/09/28 12:39:26;;;;;;;4.10;1.58;;;10.40;79.00;;;;;;5033249;28;20034;-79
2022/09/28 12:42:20;;;;;;;6.68;2.28;;;10.40;78.00;;;;;;5018513;28;20026;-78
2022/09/28 12:45:30;;;;;;;3.58;1.30;;;10.30;78.00;;;;;;5035290;28;20104;-78
2022/09/28 12:48:34;;;;;;;3.40;1.42;;;10.30;78.30;;;;;;5015558;28;20048;-79
2022/09/28 12:51:13;;;;;;;8.98;1.98;;;10.50;78.20;;;;;;5029487;28;20021;-78
2022/09/28 12:54:09;;;;;;;2.67;1.20;;;10.50;77.10;;;;;;5036054;28;20025;-79
2022/09/28 12:57:01;;;;;;;2.88;1.25;;;10.50;77.10;;;;;;5034954;28;20079;-80
2022/09/28 12:59:53;;;;;;;3.42;1.38;;;10.60;77.10;;;;;;5018219;28;20033;-80
2022/09/28 13:02:41;;;;;;;4.07;1.42;;;10.60;77.40;;;;;;5034488;28;20474;-79
2022/09/28 13:05:31;;;;;;;7.65;1.80;;;10.60;76.90;;;;;;5034318;28;20052;-78
2022/09/28 13:08:24;;;;;;;7.45;2.13;;;10.60;77.90;;;;;;5034394;28;20026;-78
2022/09/28 13:11:12;;;;;;;6.85;1.30;;;10.60;77.60;;;;;;5017248;28;20417;-77
2022/09/28 13:14:05;;;;;;;3.03;1.50;;;10.60;76.90;;;;;;5034412;28;20053;-77
2022/09/28 13:16:36;;;;;;;2.38;1.17;;;10.60;76.90;;;;;;5017677;28;20030;-77
2022/09/28 13:19:19;;;;;;;5.90;1.70;;;10.60;77.30;;;;;;5034764;28;20021;-77
2022/09/28 13:22:12;;;;;;;2.65;1.40;;;10.60;77.40;;;;;;5033931;28;20037;-79
2022/09/28 13:24:43;;;;;;;10.93;2.00;;;10.60;76.90;;;;;;4987970;28;20135;-78
2022/09/28 13:27:34;;;;;;;3.58;1.08;;;10.60;77.10;;;;;;5034125;28;20060;-78
2022/09/28 13:30:05;;;;;;;2.95;0.80;;;10.50;78.20;;;;;;5034252;28;20040;-78
2022/09/28 13:32:32;;;;;;;2.65;1.15;;;10.30;80.60;;;;;;5017937;28;20116;-78
2022/09/28 13:35:01;;;;;;;6.30;1.30;;;10.20;81.40;;;;;;5034081;28;20040;-78